sensor_id;sensor_type;location;lat;lon;timestamp;P1;durP1;ratioP1;P2;durP2;ratioP2
68375;SDS011;55318;52.068;5.188;2023-05-10T00:01:51;23.2;;;11.4;;
68375;SDS011;55318;52.068;5.188;2023-05-10T00:03:27;22.4;;;11.7;;
68375;SDS011;55318;52.068;5.188;2023-05-10T00:05:03;23.3;;;12.3;;
68375;SDS011;55318;52.068;5.188;2023-05-10T00:08:16;25.9;;;12.5;;
68375;SDS011;55318;52.068;5.188;2023-05-10T00:09:52;31.4;;;13.8;;
68375;SDS011;55318;52.068;5.188;2023-05-10T00:11:29;26.7;;;13.3;;
68375;SDS011;55318;52.068;5.188;2023-05-10T00:14:41;26.4;;;13.9;;
68375;SDS011;55318;52.068;5.188;2023-05-10T00:16:17;24.5;;;11.7;;
68375;SDS011;55318;52.068;5.188;2023-05-10T00:17:53;26.2;;;13.0;;
68375;SDS011;55318;52.068;5.188;2023-05-10T00:21:05;28.9;;;14.0;;
68375;SDS011;55318;52.068;5.188;2023-05-10T00:22:41;27.2;;;12.8;;
68375;SDS011;55318;52.068;5.188;2023-05-10T00:24:18;26.3;;;13.3;;
68375;SDS011;55318;52.068;5.188;2023-05-10T00:25:54;27.1;;;12.7;;
68375;SDS011;55318;52.068;5.188;2023-05-10T00:29:06;22.6;;;12.4;;
68375;SDS011;55318;52.068;5.188;2023-05-10T00:30:42;24.6;;;12.8;;
68375;SDS011;55318;52.068;5.188;2023-05-10T00:32:18;25.2;;;13.2;;
68375;SDS011;55318;52.068;5.188;2023-05-10T00:35:31;24.1;;;12.1;;
68375;SDS011;55318;52.068;5.188;2023-05-10T00:37:07;25.8;;;12.7;;
68375;SDS011;55318;52.068;5.188;2023-05-10T00:38:44;27.9;;;13.3;;
68375;SDS011;55318;52.068;5.188;2023-05-10T00:41:56;29.5;;;13.6;;
68375;SDS011;55318;52.068;5.188;2023-05-10T00:43:32;23.8;;;12.4;;
68375;SDS011;55318;52.068;5.188;2023-05-10T00:45:08;26.9;;;14.7;;
68375;SDS011;55318;52.068;5.188;2023-05-10T00:48:20;28.1;;;13.4;;
68375;SDS011;55318;52.068;5.188;2023-05-10T00:49:58;22.2;;;12.1;;
68375;SDS011;55318;52.068;5.188;2023-05-10T00:51:34;27.1;;;13.6;;
68375;SDS011;55318;52.068;5.188;2023-05-10T00:53:10;28.4;;;14.9;;
68375;SDS011;55318;52.068;5.188;2023-05-10T00:56:22;26.5;;;14.3;;
68375;SDS011;55318;52.068;5.188;2023-05-10T00:57:58;28.6;;;13.4;;
68375;SDS011;55318;52.068;5.188;2023-05-10T00:59:35;31.2;;;13.1;;
68375;SDS011;55318;52.068;5.188;2023-05-10T01:02:49;24.7;;;13.0;;
68375;SDS011;55318;52.068;5.188;2023-05-10T01:04:25;30.5;;;15.0;;
68375;SDS011;55318;52.068;5.188;2023-05-10T01:06:01;28.4;;;14.4;;
68375;SDS011;55318;52.068;5.188;2023-05-10T01:09:13;27.2;;;13.0;;
68375;SDS011;55318;52.068;5.188;2023-05-10T01:10:49;27.1;;;14.0;;
68375;SDS011;55318;52.068;5.188;2023-05-10T01:12:25;25.8;;;12.8;;
68375;SDS011;55318;52.068;5.188;2023-05-10T01:14:01;27.4;;;12.6;;
68375;SDS011;55318;52.068;5.188;2023-05-10T01:17:16;26.4;;;12.6;;
68375;SDS011;55318;52.068;5.188;2023-05-10T01:18:53;25.6;;;13.1;;
68375;SDS011;55318;52.068;5.188;2023-05-10T01:20:31;28.0;;;13.7;;
68375;SDS011;55318;52.068;5.188;2023-05-10T01:28:08;28.8;;;12.3;;
68375;SDS011;55318;52.068;5.188;2023-05-10T01:30:05;26.4;;;12.3;;
68375;SDS011;55318;52.068;5.188;2023-05-10T01:32:03;24.9;;;12.8;;
68375;SDS011;55318;52.068;5.188;2023-05-10T01:33:52;28.4;;;13.2;;
68375;SDS011;55318;52.068;5.188;2023-05-10T01:35:34;27.6;;;12.4;;
68375;SDS011;55318;52.068;5.188;2023-05-10T01:37:20;28.4;;;13.1;;
68375;SDS011;55318;52.068;5.188;2023-05-10T01:40:48;25.5;;;12.7;;
68375;SDS011;55318;52.068;5.188;2023-05-10T01:42:38;26.4;;;12.9;;
68375;SDS011;55318;52.068;5.188;2023-05-10T01:44:24;26.4;;;12.9;;
68375;SDS011;55318;52.068;5.188;2023-05-10T01:46:10;29.3;;;12.7;;
68375;SDS011;55318;52.068;5.188;2023-05-10T01:47:54;31.2;;;14.1;;
68375;SDS011;55318;52.068;5.188;2023-05-10T01:49:39;31.4;;;14.0;;
68375;SDS011;55318;52.068;5.188;2023-05-10T01:53:00;27.7;;;13.0;;
68375;SDS011;55318;52.068;5.188;2023-05-10T01:54:37;29.9;;;15.9;;
68375;SDS011;55318;52.068;5.188;2023-05-10T01:56:18;31.2;;;14.8;;
68375;SDS011;55318;52.068;5.188;2023-05-10T01:58:02;34.9;;;16.2;;
68375;SDS011;55318;52.068;5.188;2023-05-10T02:01:21;29.4;;;14.9;;
68375;SDS011;55318;52.068;5.188;2023-05-10T02:02:58;30.3;;;15.4;;
68375;SDS011;55318;52.068;5.188;2023-05-10T02:04:39;37.31;;;17.7;;
68375;SDS011;55318;52.068;5.188;2023-05-10T02:06:18;38.6;;;16.61;;
68375;SDS011;55318;52.068;5.188;2023-05-10T02:09:35;37.1;;;17.7;;
68375;SDS011;55318;52.068;5.188;2023-05-10T02:11:14;36.71;;;16.3;;
68375;SDS011;55318;52.068;5.188;2023-05-10T02:12:53;40.4;;;16.8;;
68375;SDS011;55318;52.068;5.188;2023-05-10T02:16:10;33.1;;;17.5;;
68375;SDS011;55318;52.068;5.188;2023-05-10T02:17:49;38.21;;;18.2;;
68375;SDS011;55318;52.068;5.188;2023-05-10T02:19:29;37.6;;;18.0;;
68375;SDS011;55318;52.068;5.188;2023-05-10T02:21:08;39.4;;;18.0;;
68375;SDS011;55318;52.068;5.188;2023-05-10T02:24:24;37.81;;;16.61;;
68375;SDS011;55318;52.068;5.188;2023-05-10T02:26:02;41.7;;;17.11;;
68375;SDS011;55318;52.068;5.188;2023-05-10T02:27:39;39.1;;;16.7;;
68375;SDS011;55318;52.068;5.188;2023-05-10T02:29:18;46.9;;;16.7;;
68375;SDS011;55318;52.068;5.188;2023-05-10T02:32:32;34.81;;;15.9;;
68375;SDS011;55318;52.068;5.188;2023-05-10T02:34:10;49.3;;;19.11;;
68375;SDS011;55318;52.068;5.188;2023-05-10T02:35:49;40.21;;;16.7;;
68375;SDS011;55318;52.068;5.188;2023-05-10T02:39:04;42.5;;;16.61;;
68375;SDS011;55318;52.068;5.188;2023-05-10T02:40:42;51.2;;;18.61;;
68375;SDS011;55318;52.068;5.188;2023-05-10T02:42:26;39.9;;;17.0;;
68375;SDS011;55318;52.068;5.188;2023-05-10T02:44:04;38.71;;;17.7;;
68375;SDS011;55318;52.068;5.188;2023-05-10T02:47:23;37.81;;;16.3;;
68375;SDS011;55318;52.068;5.188;2023-05-10T02:48:59;39.0;;;18.11;;
68375;SDS011;55318;52.068;5.188;2023-05-10T02:50:36;44.7;;;17.61;;
68375;SDS011;55318;52.068;5.188;2023-05-10T02:52:20;42.1;;;18.41;;
68375;SDS011;55318;52.068;5.188;2023-05-10T02:55:57;35.4;;;16.9;;
68375;SDS011;55318;52.068;5.188;2023-05-10T02:57:37;35.0;;;16.5;;
68375;SDS011;55318;52.068;5.188;2023-05-10T02:59:17;37.31;;;16.9;;
68375;SDS011;55318;52.068;5.188;2023-05-10T03:00:53;34.6;;;16.2;;
68375;SDS011;55318;52.068;5.188;2023-05-10T03:04:05;33.71;;;16.3;;
68375;SDS011;55318;52.068;5.188;2023-05-10T03:05:42;37.21;;;16.2;;
68375;SDS011;55318;52.068;5.188;2023-05-10T03:07:19;33.21;;;15.9;;
68375;SDS011;55318;52.068;5.188;2023-05-10T03:10:31;35.9;;;15.7;;
68375;SDS011;55318;52.068;5.188;2023-05-10T03:12:13;33.9;;;15.3;;
68375;SDS011;55318;52.068;5.188;2023-05-10T03:14:08;37.21;;;16.0;;
68375;SDS011;55318;52.068;5.188;2023-05-10T03:15:56;28.6;;;14.5;;
68375;SDS011;55318;52.068;5.188;2023-05-10T03:17:40;32.3;;;14.6;;
68375;SDS011;55318;52.068;5.188;2023-05-10T03:21:07;32.21;;;13.6;;
68375;SDS011;55318;52.068;5.188;2023-05-10T03:22:47;31.2;;;15.8;;
68375;SDS011;55318;52.068;5.188;2023-05-10T03:24:27;31.8;;;16.4;;
68375;SDS011;55318;52.068;5.188;2023-05-10T03:26:04;32.1;;;15.1;;
68375;SDS011;55318;52.068;5.188;2023-05-10T03:29:20;28.8;;;13.3;;
68375;SDS011;55318;52.068;5.188;2023-05-10T03:30:59;32.5;;;15.9;;
68375;SDS011;55318;52.068;5.188;2023-05-10T03:32:35;29.8;;;14.6;;
68375;SDS011;55318;52.068;5.188;2023-05-10T03:34:11;33.5;;;14.4;;
68375;SDS011;55318;52.068;5.188;2023-05-10T03:37:23;26.4;;;13.6;;
68375;SDS011;55318;52.068;5.188;2023-05-10T03:38:59;35.1;;;15.3;;
68375;SDS011;55318;52.068;5.188;2023-05-10T03:40:35;39.71;;;16.8;;
68375;SDS011;55318;52.068;5.188;2023-05-10T03:43:48;35.1;;;15.3;;
68375;SDS011;55318;52.068;5.188;2023-05-10T03:45:24;35.4;;;14.8;;
68375;SDS011;55318;52.068;5.188;2023-05-10T03:47:00;34.1;;;16.11;;
68375;SDS011;55318;52.068;5.188;2023-05-10T03:50:13;32.8;;;15.4;;
68375;SDS011;55318;52.068;5.188;2023-05-10T03:51:49;36.1;;;15.3;;
68375;SDS011;55318;52.068;5.188;2023-05-10T03:53:25;41.2;;;16.3;;
68375;SDS011;55318;52.068;5.188;2023-05-10T03:55:01;38.21;;;17.7;;
68375;SDS011;55318;52.068;5.188;2023-05-10T03:58:14;40.0;;;16.9;;
68375;SDS011;55318;52.068;5.188;2023-05-10T04:01:27;33.5;;;14.8;;
68375;SDS011;55318;52.068;5.188;2023-05-10T04:04:39;37.6;;;16.9;;
68375;SDS011;55318;52.068;5.188;2023-05-10T04:06:15;35.0;;;16.3;;
68375;SDS011;55318;52.068;5.188;2023-05-10T04:13:13;40.31;;;17.7;;
68375;SDS011;55318;52.068;5.188;2023-05-10T04:14:49;36.81;;;16.2;;
68375;SDS011;55318;52.068;5.188;2023-05-10T04:16:25;46.7;;;17.11;;
68375;SDS011;55318;52.068;5.188;2023-05-10T04:19:38;47.4;;;17.2;;
68375;SDS011;55318;52.068;5.188;2023-05-10T04:21:14;41.0;;;17.91;;
68375;SDS011;55318;52.068;5.188;2023-05-10T04:22:50;40.6;;;17.11;;
68375;SDS011;55318;52.068;5.188;2023-05-10T04:24:26;39.71;;;18.41;;
68375;SDS011;55318;52.068;5.188;2023-05-10T04:27:38;44.7;;;18.3;;
68375;SDS011;55318;52.068;5.188;2023-05-10T04:29:14;40.5;;;15.6;;
68375;SDS011;55318;52.068;5.188;2023-05-10T04:30:50;42.2;;;17.0;;
68375;SDS011;55318;52.068;5.188;2023-05-10T04:34:03;44.4;;;18.41;;
68375;SDS011;55318;52.068;5.188;2023-05-10T04:35:39;34.5;;;16.9;;
68375;SDS011;55318;52.068;5.188;2023-05-10T04:37:15;39.31;;;17.8;;
68375;SDS011;55318;52.068;5.188;2023-05-10T04:40:27;37.5;;;18.7;;
68375;SDS011;55318;52.068;5.188;2023-05-10T04:42:03;40.1;;;18.91;;
68375;SDS011;55318;52.068;5.188;2023-05-10T04:43:39;43.3;;;18.61;;
68375;SDS011;55318;52.068;5.188;2023-05-10T04:45:16;43.3;;;18.5;;
68375;SDS011;55318;52.068;5.188;2023-05-10T04:48:28;38.71;;;16.9;;
68375;SDS011;55318;52.068;5.188;2023-05-10T04:50:04;41.9;;;17.41;;
68375;SDS011;55318;52.068;5.188;2023-05-10T04:51:42;39.5;;;17.7;;
68375;SDS011;55318;52.068;5.188;2023-05-10T04:54:54;43.7;;;18.41;;
68375;SDS011;55318;52.068;5.188;2023-05-10T04:56:30;45.3;;;20.2;;
68375;SDS011;55318;52.068;5.188;2023-05-10T04:58:07;41.6;;;18.91;;
68375;SDS011;55318;52.068;5.188;2023-05-10T05:01:19;41.3;;;19.0;;
68375;SDS011;55318;52.068;5.188;2023-05-10T05:02:55;43.2;;;16.61;;
68375;SDS011;55318;52.068;5.188;2023-05-10T05:07:43;38.21;;;17.5;;
68375;SDS011;55318;52.068;5.188;2023-05-10T05:09:20;39.4;;;17.8;;
68375;SDS011;55318;52.068;5.188;2023-05-10T05:10:56;35.4;;;16.5;;
68375;SDS011;55318;52.068;5.188;2023-05-10T05:12:32;29.7;;;16.0;;
68375;SDS011;55318;52.068;5.188;2023-05-10T05:15:44;36.0;;;17.8;;
68375;SDS011;55318;52.068;5.188;2023-05-10T05:17:21;38.21;;;18.2;;
68375;SDS011;55318;52.068;5.188;2023-05-10T05:18:57;32.71;;;14.1;;
68375;SDS011;55318;52.068;5.188;2023-05-10T05:22:16;35.71;;;16.3;;
68375;SDS011;55318;52.068;5.188;2023-05-10T05:23:53;33.71;;;14.2;;
68375;SDS011;55318;52.068;5.188;2023-05-10T05:25:31;27.8;;;14.9;;
68375;SDS011;55318;52.068;5.188;2023-05-10T05:27:07;26.6;;;12.8;;
68375;SDS011;55318;52.068;5.188;2023-05-10T05:30:18;32.4;;;15.1;;
68375;SDS011;55318;52.068;5.188;2023-05-10T05:31:54;33.0;;;16.61;;
68375;SDS011;55318;52.068;5.188;2023-05-10T05:33:32;34.31;;;17.11;;
68375;SDS011;55318;52.068;5.188;2023-05-10T05:36:45;34.1;;;15.7;;
68375;SDS011;55318;52.068;5.188;2023-05-10T05:38:22;33.0;;;15.5;;
68375;SDS011;55318;52.068;5.188;2023-05-10T05:39:59;38.4;;;17.0;;
68375;SDS011;55318;52.068;5.188;2023-05-10T05:43:15;31.5;;;15.3;;
68375;SDS011;55318;52.068;5.188;2023-05-10T05:44:53;28.0;;;14.3;;
68375;SDS011;55318;52.068;5.188;2023-05-10T05:46:30;27.9;;;13.5;;
68375;SDS011;55318;52.068;5.188;2023-05-10T05:48:08;29.0;;;14.4;;
68375;SDS011;55318;52.068;5.188;2023-05-10T05:51:24;28.3;;;15.8;;
68375;SDS011;55318;52.068;5.188;2023-05-10T05:53:01;26.1;;;13.0;;
68375;SDS011;55318;52.068;5.188;2023-05-10T05:54:37;34.31;;;14.0;;
68375;SDS011;55318;52.068;5.188;2023-05-10T05:57:52;31.8;;;14.6;;
68375;SDS011;55318;52.068;5.188;2023-05-10T05:59:30;31.8;;;14.6;;
68375;SDS011;55318;52.068;5.188;2023-05-10T06:01:07;29.9;;;15.1;;
68375;SDS011;55318;52.068;5.188;2023-05-10T06:02:45;31.1;;;13.3;;
68375;SDS011;55318;52.068;5.188;2023-05-10T06:06:01;24.8;;;12.6;;
68375;SDS011;55318;52.068;5.188;2023-05-10T06:07:39;27.9;;;13.8;;
68375;SDS011;55318;52.068;5.188;2023-05-10T06:09:16;26.5;;;12.6;;
68375;SDS011;55318;52.068;5.188;2023-05-10T06:12:30;24.6;;;11.9;;
68375;SDS011;55318;52.068;5.188;2023-05-10T06:14:08;20.8;;;10.6;;
68375;SDS011;55318;52.068;5.188;2023-05-10T06:15:45;23.3;;;12.1;;
68375;SDS011;55318;52.068;5.188;2023-05-10T06:17:23;22.8;;;11.2;;
68375;SDS011;55318;52.068;5.188;2023-05-10T06:20:38;27.3;;;13.1;;
68375;SDS011;55318;52.068;5.188;2023-05-10T06:22:17;20.3;;;11.0;;
68375;SDS011;55318;52.068;5.188;2023-05-10T06:23:55;20.2;;;10.8;;
68375;SDS011;55318;52.068;5.188;2023-05-10T06:27:11;24.4;;;10.6;;
68375;SDS011;55318;52.068;5.188;2023-05-10T06:28:49;21.1;;;11.2;;
68375;SDS011;55318;52.068;5.188;2023-05-10T06:30:26;20.6;;;9.71;;
68375;SDS011;55318;52.068;5.188;2023-05-10T06:32:04;16.7;;;8.4;;
68375;SDS011;55318;52.068;5.188;2023-05-10T06:35:19;16.9;;;8.81;;
68375;SDS011;55318;52.068;5.188;2023-05-10T06:36:57;18.2;;;8.2;;
68375;SDS011;55318;52.068;5.188;2023-05-10T06:38:35;12.4;;;6.8;;
68375;SDS011;55318;52.068;5.188;2023-05-10T06:41:51;13.5;;;5.9;;
68375;SDS011;55318;52.068;5.188;2023-05-10T06:43:28;10.8;;;5.9;;
68375;SDS011;55318;52.068;5.188;2023-05-10T06:45:07;13.2;;;5.9;;
68375;SDS011;55318;52.068;5.188;2023-05-10T06:46:44;10.4;;;6.0;;
68375;SDS011;55318;52.068;5.188;2023-05-10T06:49:58;9.31;;;4.8;;
68375;SDS011;55318;52.068;5.188;2023-05-10T06:51:35;10.7;;;5.3;;
68375;SDS011;55318;52.068;5.188;2023-05-10T06:53:11;9.6;;;5.0;;
68375;SDS011;55318;52.068;5.188;2023-05-10T06:56:26;9.4;;;5.2;;
68375;SDS011;55318;52.068;5.188;2023-05-10T06:58:03;11.0;;;4.7;;
68375;SDS011;55318;52.068;5.188;2023-05-10T06:59:40;11.0;;;4.61;;
68375;SDS011;55318;52.068;5.188;2023-05-10T07:01:18;8.81;;;4.91;;
68375;SDS011;55318;52.068;5.188;2023-05-10T07:04:32;8.9;;;4.5;;
68375;SDS011;55318;52.068;5.188;2023-05-10T07:06:08;8.2;;;4.3;;
68375;SDS011;55318;52.068;5.188;2023-05-10T07:07:45;9.1;;;5.0;;
68375;SDS011;55318;52.068;5.188;2023-05-10T07:11:01;10.6;;;4.7;;
68375;SDS011;55318;52.068;5.188;2023-05-10T07:12:40;8.9;;;4.8;;
68375;SDS011;55318;52.068;5.188;2023-05-10T07:14:18;6.8;;;3.9;;
68375;SDS011;55318;52.068;5.188;2023-05-10T07:15:56;7.5;;;4.0;;
68375;SDS011;55318;52.068;5.188;2023-05-10T07:19:11;7.0;;;4.3;;
68375;SDS011;55318;52.068;5.188;2023-05-10T07:20:48;7.7;;;4.2;;
68375;SDS011;55318;52.068;5.188;2023-05-10T07:22:26;6.4;;;3.7;;
68375;SDS011;55318;52.068;5.188;2023-05-10T07:25:41;9.9;;;5.0;;
68375;SDS011;55318;52.068;5.188;2023-05-10T07:27:19;8.0;;;4.1;;
68375;SDS011;55318;52.068;5.188;2023-05-10T07:28:56;10.5;;;4.61;;
68375;SDS011;55318;52.068;5.188;2023-05-10T07:30:33;6.5;;;4.2;;
68375;SDS011;55318;52.068;5.188;2023-05-10T07:33:47;8.5;;;4.2;;
68375;SDS011;55318;52.068;5.188;2023-05-10T07:35:25;8.2;;;4.3;;
68375;SDS011;55318;52.068;5.188;2023-05-10T07:37:02;9.21;;;4.7;;
68375;SDS011;55318;52.068;5.188;2023-05-10T07:40:18;9.21;;;5.11;;
68375;SDS011;55318;52.068;5.188;2023-05-10T07:41:55;9.21;;;4.2;;
68375;SDS011;55318;52.068;5.188;2023-05-10T07:43:33;7.9;;;4.0;;
68375;SDS011;55318;52.068;5.188;2023-05-10T07:45:11;7.9;;;3.9;;
68375;SDS011;55318;52.068;5.188;2023-05-10T07:48:26;7.2;;;3.9;;
68375;SDS011;55318;52.068;5.188;2023-05-10T07:50:03;7.3;;;4.91;;
68375;SDS011;55318;52.068;5.188;2023-05-10T07:51:40;7.8;;;4.2;;
68375;SDS011;55318;52.068;5.188;2023-05-10T07:54:55;6.6;;;4.41;;
68375;SDS011;55318;52.068;5.188;2023-05-10T07:56:32;9.0;;;4.2;;
68375;SDS011;55318;52.068;5.188;2023-05-10T07:58:09;7.1;;;4.0;;
68375;SDS011;55318;52.068;5.188;2023-05-10T08:01:24;9.31;;;3.8;;
68375;SDS011;55318;52.068;5.188;2023-05-10T08:03:02;6.5;;;3.3;;
68375;SDS011;55318;52.068;5.188;2023-05-10T08:04:39;8.71;;;4.2;;
68375;SDS011;55318;52.068;5.188;2023-05-10T08:06:17;6.1;;;3.7;;
68375;SDS011;55318;52.068;5.188;2023-05-10T08:09:33;7.4;;;3.7;;
68375;SDS011;55318;52.068;5.188;2023-05-10T08:11:10;7.4;;;3.7;;
68375;SDS011;55318;52.068;5.188;2023-05-10T08:12:48;6.6;;;3.6;;
68375;SDS011;55318;52.068;5.188;2023-05-10T08:16:04;6.6;;;3.9;;
68375;SDS011;55318;52.068;5.188;2023-05-10T08:17:42;6.6;;;3.2;;
68375;SDS011;55318;52.068;5.188;2023-05-10T08:19:20;6.1;;;3.4;;
68375;SDS011;55318;52.068;5.188;2023-05-10T08:20:58;7.2;;;4.2;;
68375;SDS011;55318;52.068;5.188;2023-05-10T08:24:12;6.1;;;3.0;;
68375;SDS011;55318;52.068;5.188;2023-05-10T08:25:50;7.2;;;4.0;;
68375;SDS011;55318;52.068;5.188;2023-05-10T08:27:26;6.5;;;4.1;;
68375;SDS011;55318;52.068;5.188;2023-05-10T08:30:40;6.2;;;3.5;;
68375;SDS011;55318;52.068;5.188;2023-05-10T08:32:18;7.5;;;3.9;;
68375;SDS011;55318;52.068;5.188;2023-05-10T08:33:55;8.1;;;3.9;;
68375;SDS011;55318;52.068;5.188;2023-05-10T08:35:33;9.5;;;4.2;;
68375;SDS011;55318;52.068;5.188;2023-05-10T08:38:49;6.6;;;3.4;;
68375;SDS011;55318;52.068;5.188;2023-05-10T08:40:28;6.2;;;3.6;;
68375;SDS011;55318;52.068;5.188;2023-05-10T08:42:06;10.1;;;4.3;;
68375;SDS011;55318;52.068;5.188;2023-05-10T08:43:46;6.4;;;3.8;;
68375;SDS011;55318;52.068;5.188;2023-05-10T08:47:08;8.0;;;4.2;;
68375;SDS011;55318;52.068;5.188;2023-05-10T08:48:48;6.3;;;3.4;;
68375;SDS011;55318;52.068;5.188;2023-05-10T08:50:26;5.9;;;3.3;;
68375;SDS011;55318;52.068;5.188;2023-05-10T08:53:44;6.9;;;3.7;;
68375;SDS011;55318;52.068;5.188;2023-05-10T08:55:22;8.2;;;4.5;;
68375;SDS011;55318;52.068;5.188;2023-05-10T08:57:01;10.1;;;4.3;;
68375;SDS011;55318;52.068;5.188;2023-05-10T08:58:38;7.5;;;4.1;;
68375;SDS011;55318;52.068;5.188;2023-05-10T09:01:55;6.6;;;3.8;;
68375;SDS011;55318;52.068;5.188;2023-05-10T09:03:34;5.5;;;3.7;;
68375;SDS011;55318;52.068;5.188;2023-05-10T09:05:12;6.5;;;4.1;;
68375;SDS011;55318;52.068;5.188;2023-05-10T09:06:48;6.3;;;4.3;;
68375;SDS011;55318;52.068;5.188;2023-05-10T09:10:05;6.4;;;3.5;;
68375;SDS011;55318;52.068;5.188;2023-05-10T09:11:43;6.9;;;3.6;;
68375;SDS011;55318;52.068;5.188;2023-05-10T09:13:21;7.2;;;3.5;;
68375;SDS011;55318;52.068;5.188;2023-05-10T09:16:40;6.5;;;3.5;;
68375;SDS011;55318;52.068;5.188;2023-05-10T09:18:18;6.6;;;3.4;;
68375;SDS011;55318;52.068;5.188;2023-05-10T09:19:57;5.3;;;3.0;;
68375;SDS011;55318;52.068;5.188;2023-05-10T09:21:36;4.61;;;2.5;;
68375;SDS011;55318;52.068;5.188;2023-05-10T09:25:03;4.61;;;2.9;;
68375;SDS011;55318;52.068;5.188;2023-05-10T09:26:45;5.0;;;2.8;;
68375;SDS011;55318;52.068;5.188;2023-05-10T09:28:24;5.4;;;2.6;;
68375;SDS011;55318;52.068;5.188;2023-05-10T09:30:02;5.11;;;3.1;;
68375;SDS011;55318;52.068;5.188;2023-05-10T09:33:23;4.2;;;2.4;;
68375;SDS011;55318;52.068;5.188;2023-05-10T09:35:05;5.8;;;3.0;;
68375;SDS011;55318;52.068;5.188;2023-05-10T09:36:52;5.6;;;3.5;;
68375;SDS011;55318;52.068;5.188;2023-05-10T09:38:33;3.8;;;2.8;;
68375;SDS011;55318;52.068;5.188;2023-05-10T09:40:23;5.5;;;2.8;;
68375;SDS011;55318;52.068;5.188;2023-05-10T09:43:42;5.11;;;2.6;;
68375;SDS011;55318;52.068;5.188;2023-05-10T09:45:18;3.6;;;2.31;;
68375;SDS011;55318;52.068;5.188;2023-05-10T09:46:57;5.0;;;1.9;;
68375;SDS011;55318;52.068;5.188;2023-05-10T09:50:19;4.41;;;2.4;;
68375;SDS011;55318;52.068;5.188;2023-05-10T09:51:59;4.1;;;2.7;;
68375;SDS011;55318;52.068;5.188;2023-05-10T09:53:38;4.61;;;2.4;;
68375;SDS011;55318;52.068;5.188;2023-05-10T09:55:16;4.91;;;2.21;;
68375;SDS011;55318;52.068;5.188;2023-05-10T09:58:35;4.91;;;2.21;;
68375;SDS011;55318;52.068;5.188;2023-05-10T10:00:16;4.1;;;2.31;;
68375;SDS011;55318;52.068;5.188;2023-05-10T10:01:56;3.6;;;2.0;;
68375;SDS011;55318;52.068;5.188;2023-05-10T10:03:40;3.8;;;2.0;;
68375;SDS011;55318;52.068;5.188;2023-05-10T10:06:58;2.5;;;2.21;;
68375;SDS011;55318;52.068;5.188;2023-05-10T10:08:36;6.5;;;2.1;;
68375;SDS011;55318;52.068;5.188;2023-05-10T10:10:15;2.0;;;1.8;;
68375;SDS011;55318;52.068;5.188;2023-05-10T10:11:53;4.8;;;1.6;;
68375;SDS011;55318;52.068;5.188;2023-05-10T10:15:09;2.8;;;1.6;;
68375;SDS011;55318;52.068;5.188;2023-05-10T10:16:47;2.4;;;1.7;;
68375;SDS011;55318;52.068;5.188;2023-05-10T10:18:26;3.6;;;1.7;;
68375;SDS011;55318;52.068;5.188;2023-05-10T10:20:05;3.2;;;2.0;;
68375;SDS011;55318;52.068;5.188;2023-05-10T10:23:20;4.41;;;2.21;;
68375;SDS011;55318;52.068;5.188;2023-05-10T10:24:58;3.8;;;2.4;;
68375;SDS011;55318;52.068;5.188;2023-05-10T10:26:36;3.6;;;2.1;;
68375;SDS011;55318;52.068;5.188;2023-05-10T10:30:05;3.0;;;1.8;;
68375;SDS011;55318;52.068;5.188;2023-05-10T10:31:55;5.0;;;2.0;;
68375;SDS011;55318;52.068;5.188;2023-05-10T10:33:47;3.1;;;1.9;;
68375;SDS011;55318;52.068;5.188;2023-05-10T10:35:36;4.91;;;3.0;;
68375;SDS011;55318;52.068;5.188;2023-05-10T10:37:14;3.5;;;1.9;;
68375;SDS011;55318;52.068;5.188;2023-05-10T10:38:54;4.1;;;2.5;;
68375;SDS011;55318;52.068;5.188;2023-05-10T10:42:11;3.5;;;2.1;;
68375;SDS011;55318;52.068;5.188;2023-05-10T10:43:48;3.6;;;2.31;;
68375;SDS011;55318;52.068;5.188;2023-05-10T10:45:26;3.2;;;2.31;;
68375;SDS011;55318;52.068;5.188;2023-05-10T10:48:47;2.9;;;2.1;;
68375;SDS011;55318;52.068;5.188;2023-05-10T10:50:25;3.0;;;1.9;;
68375;SDS011;55318;52.068;5.188;2023-05-10T10:52:20;5.0;;;2.21;;
68375;SDS011;55318;52.068;5.188;2023-05-10T10:54:08;4.1;;;2.31;;
68375;SDS011;55318;52.068;5.188;2023-05-10T10:55:46;3.7;;;2.21;;
68375;SDS011;55318;52.068;5.188;2023-05-10T10:59:03;3.0;;;1.9;;
68375;SDS011;55318;52.068;5.188;2023-05-10T11:00:39;4.5;;;3.0;;
68375;SDS011;55318;52.068;5.188;2023-05-10T11:02:48;5.0;;;3.2;;
68375;SDS011;55318;52.068;5.188;2023-05-10T11:04:26;6.7;;;2.4;;
68375;SDS011;55318;52.068;5.188;2023-05-10T11:06:02;2.5;;;2.1;;
68375;SDS011;55318;52.068;5.188;2023-05-10T11:09:26;4.8;;;2.0;;
68375;SDS011;55318;52.068;5.188;2023-05-10T11:11:03;2.31;;;1.9;;
68375;SDS011;55318;52.068;5.188;2023-05-10T11:12:50;4.7;;;2.8;;
68375;SDS011;55318;52.068;5.188;2023-05-10T11:14:27;7.0;;;2.9;;
68375;SDS011;55318;52.068;5.188;2023-05-10T11:17:50;2.8;;;2.0;;
68375;SDS011;55318;52.068;5.188;2023-05-10T11:19:27;4.7;;;2.21;;
68375;SDS011;55318;52.068;5.188;2023-05-10T11:21:03;3.1;;;2.31;;
68375;SDS011;55318;52.068;5.188;2023-05-10T11:24:31;4.1;;;2.4;;
68375;SDS011;55318;52.068;5.188;2023-05-10T11:26:07;5.11;;;2.4;;
68375;SDS011;55318;52.068;5.188;2023-05-10T11:27:44;3.2;;;1.7;;
68375;SDS011;55318;52.068;5.188;2023-05-10T11:29:23;3.6;;;1.8;;
68375;SDS011;55318;52.068;5.188;2023-05-10T11:32:36;5.0;;;1.7;;
68375;SDS011;55318;52.068;5.188;2023-05-10T11:34:22;3.7;;;1.9;;
68375;SDS011;55318;52.068;5.188;2023-05-10T11:36:00;3.7;;;1.9;;
68375;SDS011;55318;52.068;5.188;2023-05-10T11:37:36;2.7;;;2.1;;
68375;SDS011;55318;52.068;5.188;2023-05-10T11:40:50;3.5;;;1.8;;
68375;SDS011;55318;52.068;5.188;2023-05-10T11:42:27;6.7;;;2.21;;
68375;SDS011;55318;52.068;5.188;2023-05-10T11:44:04;2.8;;;1.8;;
68375;SDS011;55318;52.068;5.188;2023-05-10T11:47:18;3.3;;;2.0;;
68375;SDS011;55318;52.068;5.188;2023-05-10T11:48:56;7.3;;;3.1;;
68375;SDS011;55318;52.068;5.188;2023-05-10T11:50:34;6.0;;;2.1;;
68375;SDS011;55318;52.068;5.188;2023-05-10T11:52:10;3.3;;;1.9;;
68375;SDS011;55318;52.068;5.188;2023-05-10T11:55:24;2.21;;;1.4;;
68375;SDS011;55318;52.068;5.188;2023-05-10T11:57:01;4.1;;;1.9;;
68375;SDS011;55318;52.068;5.188;2023-05-10T11:58:37;4.61;;;2.0;;
68375;SDS011;55318;52.068;5.188;2023-05-10T12:01:51;3.5;;;2.0;;
68375;SDS011;55318;52.068;5.188;2023-05-10T12:03:27;2.5;;;1.7;;
68375;SDS011;55318;52.068;5.188;2023-05-10T12:05:05;3.4;;;1.9;;
68375;SDS011;55318;52.068;5.188;2023-05-10T12:06:43;3.4;;;1.9;;
68375;SDS011;55318;52.068;5.188;2023-05-10T12:10:05;3.7;;;1.8;;
68375;SDS011;55318;52.068;5.188;2023-05-10T12:11:43;3.1;;;1.9;;
68375;SDS011;55318;52.068;5.188;2023-05-10T12:13:20;2.8;;;2.0;;
68375;SDS011;55318;52.068;5.188;2023-05-10T12:16:32;4.61;;;2.5;;
68375;SDS011;55318;52.068;5.188;2023-05-10T12:18:09;4.2;;;2.8;;
68375;SDS011;55318;52.068;5.188;2023-05-10T12:19:46;3.8;;;2.8;;
68375;SDS011;55318;52.068;5.188;2023-05-10T12:21:22;4.2;;;2.6;;
68375;SDS011;55318;52.068;5.188;2023-05-10T12:24:34;5.6;;;3.3;;
68375;SDS011;55318;52.068;5.188;2023-05-10T12:26:11;5.0;;;3.1;;
68375;SDS011;55318;52.068;5.188;2023-05-10T12:27:50;3.4;;;2.5;;
68375;SDS011;55318;52.068;5.188;2023-05-10T12:31:06;3.9;;;2.7;;
68375;SDS011;55318;52.068;5.188;2023-05-10T12:32:43;5.9;;;2.4;;
68375;SDS011;55318;52.068;5.188;2023-05-10T12:34:23;4.91;;;2.4;;
68375;SDS011;55318;52.068;5.188;2023-05-10T12:36:00;3.3;;;2.8;;
68375;SDS011;55318;52.068;5.188;2023-05-10T12:39:14;2.9;;;2.21;;
68375;SDS011;55318;52.068;5.188;2023-05-10T12:40:50;3.0;;;2.1;;
68375;SDS011;55318;52.068;5.188;2023-05-10T12:42:26;4.1;;;3.1;;
68375;SDS011;55318;52.068;5.188;2023-05-10T12:45:38;3.4;;;2.6;;
68375;SDS011;55318;52.068;5.188;2023-05-10T12:47:14;5.3;;;3.7;;
68375;SDS011;55318;52.068;5.188;2023-05-10T12:48:50;4.5;;;3.0;;
68375;SDS011;55318;52.068;5.188;2023-05-10T12:52:03;4.8;;;3.2;;
68375;SDS011;55318;52.068;5.188;2023-05-10T12:53:39;7.2;;;3.4;;
68375;SDS011;55318;52.068;5.188;2023-05-10T12:55:15;11.0;;;4.61;;
68375;SDS011;55318;52.068;5.188;2023-05-10T12:56:51;5.6;;;3.4;;